LUK Airport (Cincinnati Muni Airport Lunken Field) Information

FAA: LUK - ICAO: KLUK

LUK Airport Location

State Ohio
County Hamilton
City Cincinnati
LUK Airport is 3 miles southeast of Cincinnati, OH.
Latitude 39-06-12.0000N
Longitude 084-25-07.0000W
Elevation 483ft

KLUK Airport METARs

METAR KLUK 121453Z 06007KT 10SM CLR 22/12 A3020 RMK AO2 SLP224 T02220117 51004
Altimeter 30.20"
Temperature 22.2°C (72.0°F)
Wind 60° at 7KT
Clouds Skies are clear.
Visibility 10.0mi
Time observed: 2022-08-12T14:53:00Z

LUK Airport Details

Status Operational
Activation N/A
Ownership Public
Usage Public
Chart CINCINNATI
ATC on-site Yes
Beacon schedule sunset-sunrise
Beacon color clear green

LUK Airport Contacts

Owner CITY OF CINCINNATI
Owner address 262 WILMER AVE, CINCINNATI, OH 45226-1679
Owner phone 513-321-4132
Manager CHARLES C. WILLIAMSON
Manager address 1460 WILMINGTON RD, CEDARVILLE, OH 45314
Manager phone 937-766-5156

LUK Airport (Cincinnati Muni Airport Lunken Field) Radio Frequencies

LUK (Airport) Radio Frequencies

UNICOM 122.95
Common traffic advisory frequency (CTAF) 118.7